Tiempo atmosférico en la estación meteorológica de Berga, Barcelona (690 m.)



Fecha
DESCASC
Temp. máxima en grados centígrados (hora)
DESCASC
Temp. mínima en grados centígrados (hora)
DESCASC
Temp. media en grados centígrados
DESCASC
Racha de viento máxima en m/sg (hora)
DESCASC
Velocidad máxima media en intervalos de 10 minutos(hora)
DESCASC
Precipitaciones diarias en mm
DESCASC
Precipitaciones de 00:00 a 06:00 en mm
DESCASC
Precipitaciones de 06:00 a 12:00 en mm
DESCASC
Precipitaciones de 12:00 a 18:00 en mm
DESCASC
Precipitaciones de 18:00 a 24:00 en mm
DESCASC
29-10-2020 16.8 (15:50) 7.6 (04:00) 12.2 4.17 (01:40) 2.22 (04:20) 0 0 0 0 0
28-10-2020 18.4 (14:20) 5.8 (05:00) 12.1 5.83 (14:50) 3.33 (14:30) 0 0 0 0 0
27-10-2020 14.3 (16:00) 2.8 (00:00) 8.6 5 (16:10) 3.33 (16:10) 0 0 0 0 0
26-10-2020 15.2 (16:10) 5.4 (00:00) 10.3 10 (01:30) 5.83 (16:20) 0.4 0.4 0 0 0
25-10-2020 18 (14:50) 5.2 (00:00) 11.6 10 (17:10) 6.94 (17:10) 0 0 0 0 0
24-10-2020 17.2 (16:30) 5.8 (00:00) 11.5 5.56 (12:40) 3.33 (16:40) 0 0 0 0 0
23-10-2020 18.2 (15:50) 9.6 (00:00) 13.9 10.83 (16:10) 6.39 (16:10) 0 0 0 0 0
22-10-2020 16.3 (13:40) 12.3 (00:00) 14.3 6.94 (13:40) 4.17 (14:30) 7.6 0.6 1.4 0.6 5
21-10-2020 21.4 (16:40) 13.3 (00:00) 17.3 5 (15:50) 2.78 (16:50) 0 0 0 0 0
20-10-2020 16 (14:00) 10.1 (00:00) 13.1 4.17 (04:40) 2.22 (02:10) 0 0 0 0 0
19-10-2020 16.9 (14:50) 5.1 (00:00) 11 6.39 (14:40) 3.89 (18:20) 0 0 0 0 0
18-10-2020 16.6 (17:30) 4.7 (00:00) 10.7 5 (15:00) 2.78 (08:10) 0 0 0 0 0
17-10-2020 15.7 (16:40) 2.4 (00:00) 9 5.28 (00:20) 3.33 (17:20) 0 0 0 0 0
16-10-2020 14.4 (16:50) 1.1 (00:00) 7.7 6.67 (15:00) 3.61 (15:00) 0 0 0 0 0
15-10-2020 13.4 (17:00) 1.3 (00:00) 7.3 6.39 (16:50) 2.5 (11:40) 0 0 0 0 0
14-10-2020 11.4 (16:00) 3.6 (00:00) 7.5 11.67 (18:00) 5 (17:40) 4 0 0 3.2 0.8
13-10-2020 17.9 (16:20) 5.9 (00:00) 11.9 8.89 (16:50) 5.28 (17:00) 0.2 0.2 0 0 0
12-10-2020 17.9 (16:50) 6.1 (00:00) 12 15.28 (02:00) 4.72 (02:00) 0 0 0 0 0
11-10-2020 16.5 (15:20) 6.2 (00:00) 11.3 8.89 (09:20) 3.89 (08:50) 0 0 0 0 0
10-10-2020 19.7 (14:30) 11.9 (00:00) 15.8 10.56 (17:30) 7.22 (18:20) 2.6 0.8 0 0 1.8
09-10-2020 22.8 (16:30) 11.3 (00:00) 17 5 (21:20) 2.78 (21:20) 0.4 0 0 0 0.4
08-10-2020 20.4 (15:50) 12.6 (00:00) 16.5 4.17 (14:30) 2.22 (00:50) 0 0 0 0 0
07-10-2020 21.3 (17:00) 10.8 (00:00) 16 5.83 (19:10) 3.33 (15:50) 0 0 0 0 0
06-10-2020 20.8 (16:30) 6.9 (00:00) 13.8 5 (22:20) 3.06 (22:00) 0 0 0 0 0
05-10-2020 17.1 (16:10) 4.4 (00:00) 10.8 5 (16:30) 2.78 (12:50) 0 0 0 0 0
04-10-2020 15.9 (17:10) 4.6 (00:00) 10.2 10.83 (16:40) 7.22 (12:40) 0 0 0 0 0
03-10-2020 14.9 (15:40) 4.7 (00:00) 9.8 12.78 (16:10) 8.33 (16:10) 0 0 0 0 0
02-10-2020 15 (00:00) 7.1 (00:00) 11 13.89 (16:30) 6.39 (16:30) 13 0 3.4 9 0.6
01-10-2020 22.8 (15:00) 9.5 (00:00) 16.1 10 (16:30) 6.39 (15:40) 0 0 0 0 0

Gráficas

Temp. máximas Temp. mínimas Temp. medias Precipitaciones Rachas de viento máximas Velocidades máximas media en intervalos de 10 minutos

Datos horarios

Fecha y hora oficial Temperatura (ºC) Velocidad del viento (km/h) Dirección del viento Racha (km/h) Dirección de racha Precipitación (mm) Presión (hPa) Tendencia (hPa) Humedad (%)
2020-10-30 23:00:00 12 9 Este 15 Este 0 -- -- 68
2020-10-30 22:00:00 12.4 7 Este 14 Este 0 -- -- 68
2020-10-30 21:00:00 12.7 8 Este 15 Este 0 -- -- 68
2020-10-30 20:00:00 13.6 6 Nordeste 17 Este 0 -- -- 66
2020-10-30 19:00:00 14.8 8 Este 12 Este 0 -- -- 63
2020-10-30 18:00:00 17.7 2 Nordeste 6 Sudoeste 0 -- -- 53
2020-10-30 17:00:00 21 4 Sudoeste 10 Sudoeste 0 -- -- 42
2020-10-30 16:00:00 21.6 5 Sur 15 Sudoeste 0 -- -- 39
2020-10-30 15:00:00 21.7 7 Sudoeste 15 Sudoeste 0 -- -- 43
2020-10-30 14:00:00 20.8 9 Sudoeste 16 Sudoeste 0 -- -- 48
2020-10-30 13:00:00 19.4 7 Sudoeste 13 Sudoeste 0 -- -- 48
2020-10-30 12:00:00 18.6 4 Oeste 9 Sudoeste 0 -- -- 59
2020-10-30 11:00:00 16.6 4 Sudoeste 9 Sudoeste 0 -- -- 66
2020-10-30 10:00:00 13.7 0 Calma 13 Nordeste 0 -- -- 70
2020-10-30 09:00:00 9.8 9 Este 15 Este 0 -- -- 81
2020-10-30 08:00:00 7.2 9 Este 14 Este 0 -- -- 91
2020-10-30 07:00:00 7.6 8 Este 14 Este 0 -- -- 89
2020-10-30 06:00:00 7.4 7 Este 11 Este 0 -- -- 90
2020-10-30 05:00:00 8.3 6 Este 12 Nordeste 0 -- -- 89
2020-10-30 04:00:00 8.4 9 Este 14 Este 0 -- -- 90
2020-10-30 03:00:00 8.7 7 Nordeste 14 Nordeste 0 -- -- 90
2020-10-30 02:00:00 8.6 7 Este 13 Este 0 -- -- 91
2020-10-30 01:00:00 8.8 7 Este 11 Este 0 -- -- 90
2020-10-30 00:00:00 9.4 6 Este 13 Nordeste 0 -- -- 89
2020-10-29 23:00:00 9.8 7 Este 12 Este 0 -- -- 88
2020-10-29 22:00:00 10.8 7 Este 13 Este 0 -- -- 85
2020-10-29 21:00:00 11 7 Nordeste 14 Nordeste 0 -- -- 85
2020-10-29 20:00:00 11.5 6 Este 10 Este 0 -- -- 85
2020-10-29 19:00:00 12.4 4 Nordeste 9 Nordeste 0 -- -- 83
2020-10-29 18:00:00 14 3 Nordeste 5 Este 0 -- -- 76
2020-10-29 17:00:00 15.6 2 Este 8 Sudoeste 0 -- -- 71
2020-10-29 16:00:00 16.7 4 Oeste 10 Oeste 0 -- -- 66
2020-10-29 15:00:00 16.1 4 Oeste 10 Sudoeste 0 -- -- 69
2020-10-29 14:00:00 13.7 5 Este 10 Nordeste 0 -- -- 77
2020-10-29 13:00:00 13 4 Norte 8 Norte 0 -- -- 81
2020-10-29 12:00:00 12.4 4 Oeste 10 Sudoeste 0 -- -- 83
2020-10-29 11:00:00 11.8 2 Este 7 Oeste 0 -- -- 86
2020-10-29 10:00:00 10.5 0 Calma 6 Este 0 -- -- 86
2020-10-29 09:00:00 9.9 2 Este 7 Este 0 -- -- 86
2020-10-29 08:00:00 8.9 4 Este 8 Este 0 -- -- 88
2020-10-29 07:00:00 8.6 5 Este 8 Este 0 -- -- 88
2020-10-29 06:00:00 8.6 5 Este 10 Nordeste 0 -- -- 87
2020-10-29 05:00:00 8.4 5 Este 12 Nordeste 0 -- -- 88
2020-10-29 04:00:00 7.6 7 Nordeste 11 Nordeste 0 -- -- 90
2020-10-29 03:00:00 8 7 Este 12 Este 0 -- -- 89
2020-10-29 02:00:00 8.3 6 Este 15 Este 0 -- -- 87
2020-10-29 01:00:00 8.5 6 Este 12 Este 0 -- -- 87
2020-10-29 00:00:00 8.9 7 Este 12 Este 0 -- -- 86
2020-10-28 23:00:00 9.3 7 Este 10 Nordeste 0 -- -- 85
2020-10-28 22:00:00 10.4 4 Este 13 Nordeste 0 -- -- 80
2020-10-28 21:00:00 10.7 7 Nordeste 12 Nordeste 0 -- -- 79
2020-10-28 20:00:00 11.3 5 Este 8 Este 0 -- -- 78
2020-10-28 19:00:00 12.9 5 Este 8 Este 0 -- -- 71
2020-10-28 18:00:00 15.3 2 Sudoeste 11 Sur 0 -- -- 60
2020-10-28 17:00:00 17.6 5 Sudoeste 15 Sudoeste 0 -- -- 53
2020-10-28 16:00:00 18.1 6 Sur 19 Sudoeste 0 -- -- 51
2020-10-28 15:00:00 18.4 10 Sudoeste 21 Sudoeste 0 -- -- 53
2020-10-28 14:00:00 18.1 8 Sudoeste 16 Sudoeste 0 -- -- 57
2020-10-28 13:00:00 17 7 Sudoeste 14 Sudoeste 0 -- -- 59
2020-10-28 12:00:00 16.3 7 Sudoeste 12 Sudoeste 0 -- -- 59
2020-10-28 11:00:00 14.7 6 Sudoeste 12 Oeste 0 -- -- 67
2020-10-28 10:00:00 13.2 2 Sudoeste 10 Nordeste 0 -- -- 72
2020-10-28 09:00:00 8.7 5 Nordeste 10 Nordeste 0 -- -- 82
2020-10-28 08:00:00 6.6 3 Nordeste 14 Este 0 -- -- 87
2020-10-28 07:00:00 6.2 6 Nordeste 12 Nordeste 0 -- -- 88
2020-10-28 06:00:00 6.2 6 Este 13 Este 0 -- -- 87
2020-10-28 05:00:00 5.8 8 Este 12 Este 0 -- -- 87
2020-10-28 04:00:00 6.4 7 Este 14 Este 0 -- -- 85
2020-10-28 03:00:00 6.8 5 Este 12 Nordeste 0 -- -- 83
2020-10-28 02:00:00 6.4 8 Este 14 Este 0 -- -- 85
2020-10-28 01:00:00 6.6 4 Nordeste 10 Este 0 -- -- 84
2020-10-28 00:00:00 7.1 5 Nordeste 13 Nordeste 0 -- -- 82
2020-10-27 23:00:00 7.7 8 Este 14 Este 0 -- -- 80
2020-10-27 22:00:00 7.3 6 Este 11 Este 0 -- -- 82
2020-10-27 21:00:00 7.7 8 Este 12 Este 0 -- -- 80
2020-10-27 20:00:00 8.4 4 Nordeste 15 Nordeste 0 -- -- 78
2020-10-27 19:00:00 9.3 4 Este 8 Nordeste 0 -- -- 74
2020-10-27 18:00:00 10.9 3 Nordeste 10 Nordeste 0 -- -- 68
2020-10-27 17:00:00 12.9 4 Este 18 Sudoeste 0 -- -- 59
2020-10-27 16:00:00 14.3 9 Sudoeste 15 Sudoeste 0 -- -- 55
2020-10-27 15:00:00 13.3 6 Sudoeste 14 Sudoeste 0 -- -- 56
2020-10-27 14:00:00 12.5 7 Sudoeste 15 Sudoeste 0 -- -- 56
2020-10-27 13:00:00 10.9 7 Sudoeste 15 Sudoeste 0 -- -- 66
2020-10-27 12:00:00 9.3 6 Sudoeste 14 Sudoeste 0 -- -- 71
2020-10-27 11:00:00 8.4 7 Sudoeste 11 Oeste 0 -- -- 69
2020-10-27 10:00:00 6.7 3 Nordeste 12 Nordeste 0 -- -- 73
2020-10-27 09:00:00 4.5 2 Este 12 Este 0 -- -- 81
2020-10-27 08:00:00 3 3 Nordeste 9 Nordeste 0 -- -- 85
2020-10-27 07:00:00 2.9 4 Nordeste 8 Nordeste 0 -- -- 85
2020-10-27 06:00:00 2.9 4 Este 9 Nordeste 0 -- -- 86
2020-10-27 05:00:00 2.9 5 Este 9 Este 0 -- -- 85
2020-10-27 04:00:00 3.5 3 Nordeste 10 Este 0 -- -- 83
2020-10-27 03:00:00 3.5 5 Nordeste 11 Este 0 -- -- 82
2020-10-27 02:00:00 3.9 7 Este 12 Este 0 -- -- 80
2020-10-27 01:00:00 4.7 7 Este 13 Este 0 -- -- 78
2020-10-27 00:00:00 5.4 6 Este 11 Nordeste 0 -- -- 76
2020-10-26 23:00:00 6 5 Nordeste 15 Nordeste 0 -- -- 76
2020-10-26 22:00:00 6.7 8 Nordeste 13 Este 0 -- -- 74
2020-10-26 21:00:00 8.2 5 Nordeste 12 Nordeste 0 -- -- 77
2020-10-26 20:00:00 9.2 5 Nordeste 9 Nordeste 0 -- -- 75
2020-10-26 19:00:00 10.2 5 Este 16 Nordeste 0 -- -- 72
2020-10-26 18:00:00 12.1 8 Nordeste 19 Noroeste 0 -- -- 66
2020-10-26 17:00:00 14.6 13 Noroeste 32 Oeste 0 -- -- 39
2020-10-26 16:00:00 15 14 Oeste 23 Oeste 0 -- -- 46
2020-10-26 15:00:00 14.1 9 Sur 17 Sudoeste 0 -- -- 58
2020-10-26 14:00:00 13.5 5 Sur 15 Sudoeste 0 -- -- 60
2020-10-26 13:00:00 12.9 6 Sur 18 Sudoeste 0 -- -- 65
2020-10-26 12:00:00 12 12 Sudoeste 19 Sudoeste 0 -- -- 71
2020-10-26 11:00:00 12.1 10 Sudoeste 19 Sudoeste 0 -- -- 73
2020-10-26 10:00:00 10.2 10 Oeste 16 Noroeste 0 -- -- 81
2020-10-26 09:00:00 8.5 5 Este 13 Sur 0 -- -- 91
2020-10-26 08:00:00 8.6 2 Nordeste 7 Nordeste 0 -- -- 93
2020-10-26 07:00:00 8.4 4 Nordeste 10 Nordeste 0 -- -- 92
2020-10-26 06:00:00 9 4 Nordeste 12 Este 0 -- -- 93
2020-10-26 05:00:00 9.4 8 Este 12 Este 0.2 -- -- 93
2020-10-26 04:00:00 10 5 Sudoeste 9 Sudeste 0 -- -- 91
2020-10-26 03:00:00 10.5 3 Oeste 18 Sudeste 0 -- -- 88
2020-10-26 02:00:00 11 9 Sudoeste 36 Sudoeste 0 -- -- 86
2020-10-26 01:00:00 11.8 10 Sudoeste 18 Sudoeste 0.2 -- -- 81
2020-10-26 00:00:00 11.2 0 Calma 7 Noroeste 0 -- -- 76
2020-10-25 23:00:00 11.3 4 Oeste 11 Oeste 0 -- -- 74
2020-10-25 22:00:00 12.1 6 Noroeste 33 Sudoeste 0 -- -- 71
2020-10-25 21:00:00 13.7 21 Sudoeste 34 Sudoeste 0 -- -- 64
2020-10-25 20:00:00 12.9 13 Sudoeste 27 Sudoeste 0 -- -- 69
2020-10-25 19:00:00 13.4 10 Sudoeste 25 Sudoeste 0 -- -- 67
2020-10-25 18:00:00 13.8 16 Sudoeste 36 Sudoeste 0 -- -- 65
2020-10-25 17:00:00 15.1 23 Sudoeste 35 Sudoeste 0 -- -- 60
2020-10-25 16:00:00 16.8 17 Sudoeste 32 Oeste 0 -- -- 54
2020-10-25 15:00:00 17.9 21 Sudoeste 32 Sudoeste 0 -- -- 50
2020-10-25 14:00:00 16.2 8 Nordeste 22 Sudeste 0 -- -- 62
2020-10-25 13:00:00 15.7 6 Sur 13 Sudoeste 0 -- -- 66
2020-10-25 12:00:00 12.9 4 Este 11 Sudeste 0 -- -- 75
2020-10-25 11:00:00 10.8 6 Este 10 Este 0 -- -- 79
2020-10-25 10:00:00 8.8 0 Calma 8 Este 0 -- -- 90
2020-10-25 09:00:00 6.4 5 Este 8 Este 0 -- -- 94
2020-10-25 08:00:00 5.6 5 Este 8 Este 0 -- -- 94
2020-10-25 07:00:00 5.4 5 Este 8 Este 0 -- -- 95
2020-10-25 06:00:00 5.4 4 Este 9 Este 0 -- -- 95
2020-10-25 05:00:00 5.6 5 Este 9 Este 0 -- -- 93
2020-10-25 04:00:00 6.3 5 Este 10 Nordeste 0 -- -- 93
2020-10-25 03:00:00 6.5 7 Este 10 Este 0 -- -- 93
2020-10-25 02:00:00 6.9 6 Este 11 Este 0 -- -- 93
2020-10-25 01:00:00 7.7 5 Nordeste 10 Este 0 -- -- 92
2020-10-25 00:00:00 8.1 6 Este 11 Este 0 -- -- 91
2020-10-24 23:00:00 8.8 6 Este 11 Este 0 -- -- 90
2020-10-24 22:00:00 9.6 5 Este 9 Este 0 -- -- 88
2020-10-24 21:00:00 10.6 6 Este 8 Este 0 -- -- 85
2020-10-24 20:00:00 11.7 6 Este 12 Este 0 -- -- 80
2020-10-24 19:00:00 13.3 3 Este 9 Nordeste 0 -- -- 75
2020-10-24 18:00:00 15.6 4 Nordeste 19 Sudoeste 0 -- -- 66
2020-10-24 17:00:00 16.9 10 Sudoeste 18 Sudoeste 0 -- -- 60
2020-10-24 16:00:00 17.1 9 Sudoeste 19 Sudoeste 0 -- -- 60
2020-10-24 15:00:00 16.6 5 Oeste 14 Oeste 0 -- -- 62
2020-10-24 14:00:00 14.8 6 Oeste 17 Sudoeste 0 -- -- 67
2020-10-24 13:00:00 14.1 7 Sudoeste 20 Sudoeste 0 -- -- 70
2020-10-24 12:00:00 12.7 8 Sudoeste 12 Sudoeste 0 -- -- 75
2020-10-24 11:00:00 11.2 8 Sudoeste 11 Oeste 0 -- -- 77
2020-10-24 10:00:00 8.5 3 Nordeste 11 Este 0 -- -- 88
2020-10-24 09:00:00 5.8 6 Este 9 Nordeste 0 -- -- 92
2020-10-24 08:00:00 6.4 4 Nordeste 9 Este 0 -- -- 91
2020-10-24 07:00:00 6.7 4 Nordeste 11 Este 0 -- -- 90
2020-10-24 06:00:00 6.9 6 Este 12 Este 0 -- -- 89
2020-10-24 05:00:00 7.4 7 Este 13 Este 0 -- -- 87
2020-10-24 04:00:00 7.8 7 Este 11 Nordeste 0 -- -- 86
2020-10-24 03:00:00 8.2 5 Nordeste 14 Nordeste 0 -- -- 86
2020-10-24 02:00:00 8.5 5 Este 14 Este 0 -- -- 85
2020-10-24 01:00:00 8.6 6 Este 14 Este 0 -- -- 86
2020-10-24 00:00:00 9.6 4 Este 15 Nordeste 0 -- -- 82
2020-10-23 23:00:00 9.8 8 Nordeste 15 Nordeste 0 -- -- 84
2020-10-23 22:00:00 10.6 6 Este 12 Este 0 -- -- 82
2020-10-23 21:00:00 12.2 5 Este 9 Nordeste 0 -- -- 75
2020-10-23 20:00:00 13.3 5 Nordeste 26 Oeste 0 -- -- 71
2020-10-23 19:00:00 14.4 15 Oeste 24 Oeste 0 -- -- 66
2020-10-23 18:00:00 16.9 19 Oeste 35 Oeste 0 -- -- 58
2020-10-23 17:00:00 17.3 23 Sudoeste 39 Oeste 0 -- -- 60
2020-10-23 16:00:00 18 23 Oeste 32 Oeste 0 -- -- 58
2020-10-23 15:00:00 18 19 Oeste 33 Oeste 0 -- -- 59
2020-10-23 14:00:00 18 19 Oeste 31 Oeste 0 -- -- 64
2020-10-23 13:00:00 15.4 8 Este 11 Nordeste 0 -- -- 90
2020-10-23 12:00:00 13.7 4 Sur 10 Sudeste 0 -- -- 95
2020-10-23 11:00:00 12.5 3 Noroeste 8 Oeste 0 -- -- 97
2020-10-23 10:00:00 12.1 4 Noroeste 8 Noroeste 0 -- -- 97
2020-10-23 09:00:00 11.7 4 Sur 7 Sur 0 -- -- 97
2020-10-23 08:00:00 11.7 3 Este 6 Este 0 -- -- 96
2020-10-23 07:00:00 11.9 2 Noroeste 6 Sur 0 -- -- 96
2020-10-23 06:00:00 12.2 3 Nordeste 7 Este 0 -- -- 96
2020-10-23 05:00:00 12.2 0 Calma 6 Nordeste 0 -- -- 96
2020-10-23 04:00:00 12.4 2 Sudoeste 6 Nordeste 0 -- -- 95
2020-10-23 03:00:00 12.2 3 Este 7 Nordeste 0 -- -- 95
2020-10-23 02:00:00 12.2 2 Este 9 Este 0 -- -- 95
2020-10-23 01:00:00 12.3 4 Nordeste 10 Este 0 -- -- 94
2020-10-23 00:00:00 12.4 5 Este 13 Este 0.2 -- -- 94
2020-10-22 23:00:00 12.3 7 Este 15 Este 0.6 -- -- 94
2020-10-22 22:00:00 12.5 6 Este 20 Este 0.8 -- -- 93
2020-10-22 21:00:00 12.5 5 Este 15 Nordeste 1.6 -- -- 93
2020-10-22 20:00:00 12.9 5 Este 12 Nordeste 1.2 -- -- 91
2020-10-22 19:00:00 13.6 5 Este 12 Nordeste 0.6 -- -- 87
2020-10-22 18:00:00 14.9 3 Oeste 17 Nordeste 0.2 -- -- 81
2020-10-22 17:00:00 15.6 8 Este 19 Nordeste 0.2 -- -- 74
2020-10-22 16:00:00 15.6 10 Nordeste 18 Este 0.2 -- -- 75
2020-10-22 15:00:00 16.2 10 Nordeste 23 Nordeste 0 -- -- 70
2020-10-22 14:00:00 16.2 7 Nordeste 25 Este 0 -- -- 72
2020-10-22 13:00:00 15.7 12 Nordeste 23 Este 0 -- -- 74
2020-10-22 12:00:00 14.9 13 Nordeste 22 Nordeste 0 -- -- 77
2020-10-22 11:00:00 13.8 13 Nordeste 21 Nordeste 0 -- -- 84
2020-10-22 10:00:00 13.4 8 Este 16 Este 1.2 -- -- 89
2020-10-22 09:00:00 13.7 9 Nordeste 18 Este 0 -- -- 87
2020-10-22 08:00:00 13.6 11 Este 18 Este 0 -- -- 89
2020-10-22 07:00:00 13.2 9 Este 17 Este 0.2 -- -- 91
2020-10-22 06:00:00 12.8 7 Nordeste 18 Este 0.2 -- -- 93
2020-10-22 05:00:00 12.3 8 Este 13 Este 0.4 -- -- 92
2020-10-22 04:00:00 12.8 6 Este 11 Este 0 -- -- 88
2020-10-22 03:00:00 12.7 5 Este 15 Este 0 -- -- 90
2020-10-22 02:00:00 13.6 13 Este 22 Este 0 -- -- 87
2020-10-22 01:00:00 13.3 7 Este 11 Este 0 -- -- 90
2020-10-22 00:00:00 13.7 6 Este 9 Nordeste 0 -- -- 89
2020-10-21 23:00:00 14.1 6 Este 9 Este 0 -- -- 89
2020-10-21 22:00:00 14.8 5 Este 8 Este 0 -- -- 87
2020-10-21 21:00:00 15.5 3 Nordeste 9 Oeste 0 -- -- 84
2020-10-21 20:00:00 16.7 2 Este 6 Este 0 -- -- 79
2020-10-21 19:00:00 18.1 3 Este 7 Oeste 0 -- -- 73
2020-10-21 18:00:00 19.8 5 Sudoeste 9 Sudoeste 0 -- -- 65
2020-10-21 17:00:00 21 6 Sudoeste 17 Sudoeste 0 -- -- 61
2020-10-21 16:00:00 20.4 9 Sudoeste 18 Sudoeste 0 -- -- 62
2020-10-21 15:00:00 20.5 6 Sur 15 Sudoeste 0 -- -- 61
2020-10-21 14:00:00 19.8 2 Sudeste 9 Este 0 -- -- 67
2020-10-21 13:00:00 18 7 Nordeste 12 Nordeste 0 -- -- 74
2020-10-21 12:00:00 16.2 4 Este 12 Este 0 -- -- 84
2020-10-21 11:00:00 15.3 4 Nordeste 9 Nordeste 0 -- -- 87
2020-10-21 10:00:00 14.8 4 Este 11 Nordeste 0 -- -- 89
2020-10-21 09:00:00 14.3 5 Este 10 Nordeste 0 -- -- 88
2020-10-21 08:00:00 14.1 5 Este 12 Este 0 -- -- 87
2020-10-21 07:00:00 13.8 4 Este 14 Nordeste 0 -- -- 87
2020-10-21 06:00:00 13.3 5 Este 12 Nordeste 0 -- -- 88
2020-10-21 05:00:00 14.2 4 Este 10 Este 0 -- -- 85
2020-10-21 04:00:00 13.7 6 Este 9 Este 0 -- -- 85
2020-10-21 03:00:00 14 4 Este 7 Este 0 -- -- 84
2020-10-21 02:00:00 14.4 0 Calma 4 Este 0 -- -- 82
2020-10-21 01:00:00 14.2 3 Este 10 Nordeste 0 -- -- 80
2020-10-21 00:00:00 13.9 3 Nordeste 8 Este 0 -- -- 80
2020-10-20 23:00:00 13.7 5 Este 11 Nordeste 0 -- -- 80
2020-10-20 22:00:00 13.3 5 Nordeste 12 Nordeste 0 -- -- 80
2020-10-20 21:00:00 13.2 3 Nordeste 8 Este 0 -- -- 82
2020-10-20 20:00:00 13.7 4 Este 7 Este 0 -- -- 81
2020-10-20 19:00:00 14.4 3 Este 6 Este 0 -- -- 77
2020-10-20 18:00:00 15.5 3 Este 7 Norte 0 -- -- 71
2020-10-20 17:00:00 15.7 4 Nordeste 9 Este 0 -- -- 72
2020-10-20 16:00:00 15.7 5 Este 10 Nordeste 0 -- -- 74
2020-10-20 15:00:00 15.5 2 Nordeste 8 Este 0 -- -- 76
2020-10-20 14:00:00 16 3 Oeste 9 Oeste 0 -- -- 72
2020-10-20 13:00:00 15 2 Este 6 Oeste 0 -- -- 77
2020-10-20 12:00:00 13.8 2 Este 8 Sur 0 -- -- 78
2020-10-20 11:00:00 12.8 4 Nordeste 12 Este 0 -- -- 78
2020-10-20 10:00:00 12.2 6 Este 13 Este 0 -- -- 79
2020-10-20 09:00:00 10.9 6 Este 11 Este 0 -- -- 83
2020-10-20 08:00:00 10.9 5 Nordeste 10 Este 0 -- -- 82
2020-10-20 07:00:00 10.7 5 Este 11 Este 0 -- -- 83
2020-10-20 06:00:00 10.8 6 Este 11 Este 0 -- -- 83
2020-10-20 05:00:00 11.4 2 Nordeste 15 Nordeste 0 -- -- 80
2020-10-20 04:00:00 10.8 5 Este 14 Este 0 -- -- 85
2020-10-20 03:00:00 10.1 8 Este 13 Este 0 -- -- 91
2020-10-20 02:00:00 10.4 6 Este 10 Nordeste 0 -- -- 92
2020-10-20 01:00:00 10.7 4 Este 6 Nordeste 0 -- -- 91
2020-10-20 00:00:00 11.7 2 Nordeste 4 Nordeste 0 -- -- 87
2020-10-19 23:00:00 12.4 0 Calma 6 Sudoeste 0 -- -- 84
2020-10-19 22:00:00 12.5 3 Sur 6 Sudoeste 0 -- -- 82
2020-10-19 21:00:00 13 5 Sudoeste 12 Sur 0 -- -- 79
2020-10-19 20:00:00 13.3 4 Este 14 Sudoeste 0 -- -- 80
2020-10-19 19:00:00 14.4 11 Sudoeste 21 Sudoeste 0 -- -- 76
2020-10-19 18:00:00 15.9 13 Sudoeste 20 Sudoeste 0 -- -- 72
2020-10-19 17:00:00 15.7 4 Sur 15 Sudoeste 0 -- -- 74
2020-10-19 16:00:00 16.1 9 Sudoeste 21 Sudoeste 0 -- -- 73
2020-10-19 15:00:00 16.9 9 Sudoeste 23 Sur 0 -- -- 68
2020-10-19 14:00:00 16 6 Sudoeste 16 Oeste 0 -- -- 70
2020-10-19 13:00:00 13.8 4 Sudoeste 12 Sudoeste 0 -- -- 76
2020-10-19 12:00:00 14 5 Sudoeste 13 Sudoeste 0 -- -- 73
2020-10-19 11:00:00 10.9 5 Este 11 Nordeste 0 -- -- 72
2020-10-19 10:00:00 8.2 4 Este 13 Este 0 -- -- 80
2020-10-19 09:00:00 5.5 8 Este 16 Este 0 -- -- 85
2020-10-19 08:00:00 5.1 9 Este 15 Este 0 -- -- 87
2020-10-19 07:00:00 5.5 8 Este 15 Este 0 -- -- 85
2020-10-19 06:00:00 6.3 8 Este 15 Este 0 -- -- 82
2020-10-19 05:00:00 6.1 8 Este 17 Este 0 -- -- 85
2020-10-19 04:00:00 6 8 Este 14 Este 0 -- -- 87
2020-10-19 03:00:00 6.6 8 Este 13 Este 0 -- -- 84
2020-10-19 02:00:00 7.2 8 Este 14 Este 0 -- -- 83
2020-10-19 01:00:00 7.7 7 Nordeste 16 Este 0 -- -- 81
2020-10-19 00:00:00 7.6 8 Este 12 Este 0 -- -- 84
2020-10-18 23:00:00 7.9 6 Este 10 Este 0 -- -- 83
2020-10-18 22:00:00 9 7 Este 10 Nordeste 0 -- -- 78
2020-10-18 21:00:00 10.2 6 Este 12 Este 0 -- -- 74
2020-10-18 20:00:00 11.6 4 Nordeste 8 Este 0 -- -- 69
2020-10-18 19:00:00 14.3 3 Norte 8 Sudoeste 0 -- -- 57
2020-10-18 18:00:00 16.3 4 Sudoeste 11 Sudoeste 0 -- -- 50
2020-10-18 17:00:00 16.5 5 Sudoeste 15 Sudoeste 0 -- -- 50
2020-10-18 16:00:00 15.9 6 Sudoeste 18 Sudoeste 0 -- -- 52
2020-10-18 15:00:00 16.1 6 Sudoeste 18 Sudoeste 0 -- -- 52
2020-10-18 14:00:00 14.8 5 Sudoeste 16 Sudoeste 0 -- -- 55
2020-10-18 13:00:00 15 8 Sudoeste 14 Sudoeste 0 -- -- 53
2020-10-18 12:00:00 14 6 Sudoeste 13 Sudoeste 0 -- -- 57
2020-10-18 11:00:00 11 4 Este 11 Este 0 -- -- 67
2020-10-18 10:00:00 7.9 6 Este 16 Este 0 -- -- 74
2020-10-18 09:00:00 4.9 7 Este 16 Este 0 -- -- 83
2020-10-18 08:00:00 4.8 8 Este 17 Nordeste 0 -- -- 83
2020-10-18 07:00:00 4.8 9 Este 14 Este 0 -- -- 84
2020-10-18 06:00:00 5 8 Este 13 Este 0 -- -- 84
2020-10-18 05:00:00 5.5 5 Este 17 Nordeste 0 -- -- 82
2020-10-18 04:00:00 5.6 9 Este 14 Nordeste 0 -- -- 83
2020-10-18 03:00:00 5.9 7 Este 15 Nordeste 0 -- -- 82
2020-10-18 02:00:00 6 8 Este 13 Este 0 -- -- 83
2020-10-18 01:00:00 6.5 7 Este 14 Este 0 -- -- 81
2020-10-18 00:00:00 7 5 Este 15 Este 0 -- -- 79
2020-10-17 23:00:00 8.3 6 Nordeste 15 Nordeste 0 -- -- 74
2020-10-17 22:00:00 8.5 7 Este 14 Este 0 -- -- 74
2020-10-17 21:00:00 9 5 Este 10 Este 0 -- -- 74
2020-10-17 20:00:00 10.9 4 Este 7 Sur 0 -- -- 63
2020-10-17 19:00:00 13.3 3 Sur 9 Sur 0 -- -- 53
2020-10-17 18:00:00 14.8 6 Sudoeste 18 Sudoeste 0 -- -- 48
2020-10-17 17:00:00 15.7 9 Oeste 18 Sudoeste 0 -- -- 46
2020-10-17 16:00:00 15.4 6 Oeste 15 Oeste 0 -- -- 48
2020-10-17 15:00:00 14.2 6 Oeste 18 Sudoeste 0 -- -- 54
2020-10-17 14:00:00 13.3 9 Oeste 17 Sudoeste 0 -- -- 56
2020-10-17 13:00:00 11.8 8 Oeste 15 Sudoeste 0 -- -- 57
2020-10-17 12:00:00 11 8 Oeste 13 Sudoeste 0 -- -- 61
2020-10-17 11:00:00 9.6 3 Sudoeste 8 Sudoeste 0 -- -- 63
2020-10-17 10:00:00 5.7 3 Nordeste 11 Este 0 -- -- 79
2020-10-17 09:00:00 2.5 6 Este 14 Este 0 -- -- 87
2020-10-17 08:00:00 2.5 7 Este 12 Este 0 -- -- 86
2020-10-17 07:00:00 2.8 7 Este 14 Este 0 -- -- 85
2020-10-17 06:00:00 3.4 7 Este 13 Nordeste 0 -- -- 83
2020-10-17 05:00:00 3.8 7 Este 14 Este 0 -- -- 81
2020-10-17 04:00:00 4.1 9 Este 14 Nordeste 0 -- -- 80
2020-10-17 03:00:00 4.3 6 Este 14 Este 0 -- -- 79
2020-10-17 02:00:00 5 8 Este 17 Nordeste 0 -- -- 77
2020-10-17 01:00:00 5.3 7 Este 19 Nordeste 0 -- -- 76
2020-10-17 00:00:00 6 9 Nordeste 16 Nordeste 0 -- -- 72
2020-10-16 23:00:00 6.8 7 Nordeste 16 Nordeste 0 -- -- 69
2020-10-16 22:00:00 7.2 6 Nordeste 14 Este 0 -- -- 69
2020-10-16 21:00:00 7.8 6 Este 13 Este 0 -- -- 67
2020-10-16 20:00:00 9.6 5 Este 8 Nordeste 0 -- -- 59
2020-10-16 19:00:00 12.2 2 Noroeste 10 Sudoeste 0 -- -- 48
2020-10-16 18:00:00 14.1 5 Sudoeste 16 Oeste 0 -- -- 40
2020-10-16 17:00:00 14.3 6 Sudoeste 17 Sudoeste 0 -- -- 39
2020-10-16 16:00:00 14.2 9 Sudoeste 21 Sudoeste 0 -- -- 38
2020-10-16 15:00:00 13.8 13 Oeste 24 Sudoeste 0 -- -- 44
2020-10-16 14:00:00 13.1 8 Oeste 19 Oeste 0 -- -- 46
2020-10-16 13:00:00 12.1 6 Sudoeste 10 Oeste 0 -- -- 44
2020-10-16 12:00:00 10 3 Sur 10 Sudoeste 0 -- -- 58
2020-10-16 11:00:00 7.6 6 Sudoeste 11 Sudoeste 0 -- -- 64
2020-10-16 10:00:00 5.5 3 Sudeste 8 Sudoeste 0 -- -- 71
2020-10-16 09:00:00 1.1 6 Este 9 Este 0 -- -- 85
2020-10-16 08:00:00 1.2 3 Nordeste 10 Nordeste 0 -- -- 81
2020-10-16 07:00:00 1.3 4 Nordeste 9 Este 0 -- -- 81
2020-10-16 06:00:00 2.1 3 Este 14 Nordeste 0 -- -- 77
2020-10-16 05:00:00 2.3 7 Este 12 Este 0 -- -- 77
2020-10-16 04:00:00 3.4 6 Este 11 Este 0 -- -- 72
2020-10-16 03:00:00 3.2 4 Este 12 Este 0 -- -- 74
2020-10-16 02:00:00 4.4 6 Este 12 Nordeste 0 -- -- 68
2020-10-16 01:00:00 4.9 8 Este 10 Este 0 -- -- 68
2020-10-16 00:00:00 6.5 4 Este 9 Este 0 -- -- 57
2020-10-15 23:00:00 7.2 4 Nordeste 9 Norte 0 -- -- 54
2020-10-15 22:00:00 8.1 4 Nordeste 14 Nordeste 0 -- -- 52
2020-10-15 21:00:00 8.4 5 Norte 14 Noroeste 0 -- -- 50
2020-10-15 20:00:00 8.3 3 Este 10 Norte 0 -- -- 71
2020-10-15 19:00:00 10.5 4 Oeste 17 Sudoeste 0 -- -- 65
2020-10-15 18:00:00 13.3 5 Sudoeste 18 Este 0 -- -- 54
2020-10-15 17:00:00 13.4 6 Nordeste 23 Nordeste 0 -- -- 39
2020-10-15 16:00:00 12 4 Este 7 Este 0 -- -- 66
2020-10-15 15:00:00 11.7 3 Sur 15 Sudoeste 0 -- -- 68
2020-10-15 14:00:00 12.2 7 Sudoeste 14 Sudoeste 0 -- -- 69
2020-10-15 13:00:00 10.3 7 Sudoeste 13 Sudoeste 0 -- -- 66
2020-10-15 12:00:00 8.7 8 Sudoeste 13 Sudoeste 0 -- -- 79
2020-10-15 11:00:00 7.3 3 Sudoeste 10 Sudoeste 0 -- -- 81
2020-10-15 10:00:00 3.7 3 Oeste 6 Oeste 0 -- -- 95
2020-10-15 09:00:00 2.7 2 Este 8 Este 0 -- -- 95
2020-10-15 08:00:00 2.1 4 Nordeste 15 Este 0 -- -- 95
2020-10-15 07:00:00 1.3 6 Este 10 Este 0 -- -- 95
2020-10-15 06:00:00 1.5 5 Oeste 10 Este 0 -- -- 93
2020-10-15 05:00:00 2 5 Este 13 Este 0 -- -- 93
2020-10-15 04:00:00 2.3 3 Nordeste 13 Este 0 -- -- 92
2020-10-15 03:00:00 2.7 7 Este 13 Este 0 -- -- 93
2020-10-15 02:00:00 2.9 6 Este 12 Este 0 -- -- 93
2020-10-15 01:00:00 3.3 6 Este 10 Este 0 -- -- 94
2020-10-15 00:00:00 3.7 5 Este 12 Este 0 -- -- 94
2020-10-14 23:00:00 4 5 Este 10 Nordeste 0 -- -- 93
2020-10-14 22:00:00 4.7 3 Este 8 Este 0 -- -- 92
2020-10-14 21:00:00 5.4 4 Este 16 Este 0 -- -- 89
2020-10-14 20:00:00 6.1 4 Este 17 Este 0 -- -- 85
2020-10-14 19:00:00 6.8 5 Nordeste 30 Norte 0.8 -- -- 83
2020-10-14 18:00:00 6.9 17 Norte 42 Norte 2 -- -- 78
2020-10-14 17:00:00 8.6 7 Oeste 32 Nordeste 1.2 -- -- 79
2020-10-14 16:00:00 11.4 7 Sudoeste 18 Sudoeste 0 -- -- 66
2020-10-14 15:00:00 10.5 13 Oeste 19 Sudoeste 0 -- -- 71
2020-10-14 14:00:00 11 9 Sudoeste 15 Sudoeste 0 -- -- 71
2020-10-14 13:00:00 10.2 7 Oeste 12 Oeste 0 -- -- 75
2020-10-14 12:00:00 9 5 Oeste 7 Oeste 0 -- -- 83
2020-10-14 11:00:00 8.3 3 Oeste 6 Sudoeste 0 -- -- 86
2020-10-14 10:00:00 7.7 2 Oeste 7 Sur 0 -- -- 88
2020-10-14 09:00:00 6.8 2 Este 6 Este 0 -- -- 92
2020-10-14 08:00:00 6.4 3 Este 5 Este 0 -- -- 90
2020-10-14 07:00:00 6.6 3 Norte 9 Nordeste 0 -- -- 90
2020-10-14 06:00:00 7 3 Este 8 Nordeste 0 -- -- 93
2020-10-14 05:00:00 7.1 4 Sudeste 9 Nordeste 0 -- -- 93
2020-10-14 04:00:00 7.8 5 Sudoeste 12 Sur 0 -- -- 92
2020-10-14 03:00:00 8.4 4 Este 10 Sudoeste 0 -- -- 91
2020-10-14 02:00:00 9.7 6 Sudoeste 9 Sudoeste 0 -- -- 88
2020-10-14 01:00:00 10.6 0 Calma 5 Sudoeste 0 -- -- 86
2020-10-14 00:00:00 11 2 Sudeste 6 Sur 0 -- -- 85
2020-10-13 23:00:00 11.3 0 Calma 8 Sur 0 -- -- 83
2020-10-13 22:00:00 11.9 6 Sudoeste 14 Sudoeste 0 -- -- 81
2020-10-13 21:00:00 12.8 5 Sudoeste 16 Sudoeste 0 -- -- 78
2020-10-13 20:00:00 13.8 12 Sudoeste 20 Sudoeste 0 -- -- 74
2020-10-13 19:00:00 15.6 6 Sudoeste 20 Sudoeste 0 -- -- 51
2020-10-13 18:00:00 17.5 11 Sudoeste 25 Sudoeste 0 -- -- 47
2020-10-13 17:00:00 17.6 19 Sudoeste 32 Sudoeste 0 -- -- 46
2020-10-13 16:00:00 17.8 15 Sudoeste 22 Sudoeste 0 -- -- 48
2020-10-13 15:00:00 16.9 9 Sudoeste 23 Sudoeste 0 -- -- 52
2020-10-13 14:00:00 16.1 6 Sudoeste 15 Sur 0 -- -- 53
2020-10-13 13:00:00 14.9 8 Oeste 13 Sudoeste 0 -- -- 55
2020-10-13 12:00:00 13.1 4 Noroeste 11 Sudoeste 0 -- -- 61
2020-10-13 11:00:00 -- -- -- -- -- -- -- -- --
2020-10-13 10:00:00 -- -- -- -- -- -- -- -- --
2020-10-13 09:00:00 6.3 2 Este 7 Este 0 -- -- 82
2020-10-13 08:00:00 6.2 3 Este 8 Este 0 -- -- 83
2020-10-13 07:00:00 6.6 4 Este 9 Este 0 -- -- 80
2020-10-13 06:00:00 7.2 4 Nordeste 9 Nordeste 0 -- -- 84
2020-10-13 05:00:00 8.1 3 Sur 14 Sudeste 0.2 -- -- 78
2020-10-13 04:00:00 -- -- -- -- -- -- -- -- --
2020-10-13 03:00:00 9.4 4 Sur 5 Sudoeste 0 -- -- 58
2020-10-13 02:00:00 9.7 3 Este 8 Este 0 -- -- 61
2020-10-13 01:00:00 -- -- -- -- -- -- -- -- --
2020-10-13 00:00:00 10.8 4 Nordeste 9 Este 0 -- -- 48
2020-10-12 23:00:00 11.1 3 Oeste 14 Nordeste 0 -- -- 48
2020-10-12 22:00:00 12.1 4 Nordeste 17 Nordeste 0 -- -- 42
2020-10-12 21:00:00 12.8 11 Nordeste 22 Nordeste 0 -- -- 36
2020-10-12 20:00:00 12.9 8 Nordeste 18 Nordeste 0 -- -- 39
2020-10-12 19:00:00 14.8 3 Nordeste 10 Nordeste 0 -- -- 37
2020-10-12 18:00:00 -- -- -- -- -- -- -- -- --
2020-10-12 17:00:00 17.8 3 Este 12 Este 0 -- -- 30
2020-10-12 16:00:00 17.6 4 Sudeste 17 Sudoeste 0 -- -- 29
2020-10-12 15:00:00 17.3 5 Sudeste 16 Sudoeste 0 -- -- 30
2020-10-12 14:00:00 17.5 4 Sudoeste 15 Sudoeste 0 -- -- 32
2020-10-12 13:00:00 16.3 7 Oeste 21 Oeste 0 -- -- 38
2020-10-12 12:00:00 14.8 13 Oeste 17 Oeste 0 -- -- 38
2020-10-12 11:00:00 15.2 2 Sur 9 Sudoeste 0 -- -- 37
2020-10-12 10:00:00 11.6 4 Sudoeste 13 Nordeste 0 -- -- 53
2020-10-12 09:00:00 7 5 Sudeste 12 Este 0 -- -- 66
2020-10-12 08:00:00 6.1 2 Norte 26 Sur 0 -- -- 66
2020-10-12 07:00:00 7.4 7 Oeste 42 Norte 0 -- -- 60
2020-10-12 06:00:00 8 13 Oeste 38 Nordeste 0 -- -- 58
2020-10-12 05:00:00 7.9 4 Oeste 10 Sur 0 -- -- 57
2020-10-12 04:00:00 -- -- -- -- -- -- -- -- --
2020-10-12 03:00:00 10.1 3 Este 43 Norte 0 -- -- 48
2020-10-12 02:00:00 11 17 Norte 55 Nordeste 0 -- -- 44
2020-10-12 01:00:00 9.8 6 Nordeste 16 Nordeste 0 -- -- 48
2020-10-12 00:00:00 10.2 7 Nordeste 22 Nordeste 0 -- -- 50
2020-10-11 23:00:00 9.4 7 Nordeste 18 Este 0 -- -- 52
2020-10-11 22:00:00 10.6 6 Este 30 Nordeste 0 -- -- 48
2020-10-11 21:00:00 -- -- -- -- -- -- -- -- --
2020-10-11 20:00:00 -- -- -- -- -- -- -- -- --
2020-10-11 19:00:00 14.2 4 Nordeste 19 Noroeste 0 -- -- 40
2020-10-11 18:00:00 15.9 8 Noroeste 21 Oeste 0 -- -- 36
2020-10-11 17:00:00 16.1 9 Nordeste 22 Norte 0 -- -- 31
2020-10-11 16:00:00 15.1 3 Sudoeste 13 Oeste 0 -- -- 43
2020-10-11 15:00:00 15.9 5 Sudoeste 13 Sudoeste 0 -- -- 42
2020-10-11 14:00:00 16.2 4 Este 14 Sudeste 0 -- -- 38
2020-10-11 13:00:00 14.9 7 Este 21 Este 0 -- -- 38
2020-10-11 12:00:00 12.7 10 Este 24 Este 0 -- -- 47
2020-10-11 11:00:00 9.7 9 Este 25 Este 0 -- -- 54
2020-10-11 10:00:00 10 12 Nordeste 32 Nordeste 0 -- -- 48
2020-10-11 09:00:00 8.6 13 Nordeste 31 Nordeste 0 -- -- 53
2020-10-11 08:00:00 6.2 5 Este 9 Sudoeste 0 -- -- 93
2020-10-11 07:00:00 6.5 4 Sudoeste 12 Este 0 -- -- 93
2020-10-11 06:00:00 7.3 4 Nordeste 9 Nordeste 0 -- -- 93
2020-10-11 05:00:00 8.6 4 Este 8 Este 0 -- -- 92
2020-10-11 04:00:00 9.1 3 Nordeste 9 Este 0 -- -- 91
2020-10-11 03:00:00 9.8 0 Calma 5 Sudoeste 0 -- -- 90
2020-10-11 02:00:00 10.5 0 Calma 10 Nordeste 0 -- -- 80
2020-10-11 01:00:00 10.9 8 Este 17 Este 0 -- -- 84
2020-10-11 00:00:00 11.9 5 Este 21 Nordeste 0 -- -- 75
2020-10-10 23:00:00 12.7 15 Nordeste 25 Nordeste 0 -- -- 70
2020-10-10 22:00:00 13.2 6 Este 12 Sudeste 0 -- -- 91
2020-10-10 21:00:00 14.2 7 Sudoeste 22 Sudoeste 1.8 -- -- 83
2020-10-10 20:00:00 15.4 8 Sudoeste 21 Sudoeste 0 -- -- 81
2020-10-10 19:00:00 15.8 14 Sudoeste 36 Sudoeste 0 -- -- 77
2020-10-10 18:00:00 17 23 Sudoeste 38 Sudoeste 0 -- -- 73
2020-10-10 17:00:00 18 22 Sudoeste 36 Oeste 0 -- -- 69
2020-10-10 16:00:00 18.9 22 Sudoeste 33 Sudoeste 0 -- -- 71
2020-10-10 15:00:00 19.4 20 Sudoeste 31 Sudoeste 0 -- -- 71
2020-10-10 14:00:00 18.8 8 Sur 21 Sur 0 -- -- 78
2020-10-10 13:00:00 17.3 7 Sur 17 Sudoeste 0 -- -- 87
2020-10-10 12:00:00 16.3 7 Sur 15 Sudoeste 0 -- -- 93
2020-10-10 11:00:00 16.3 5 Sudoeste 11 Sudoeste 0 -- -- 91
2020-10-10 10:00:00 15.3 3 Sur 6 Nordeste 0 -- -- 91
2020-10-10 09:00:00 14.9 2 Sur 6 Este 0 -- -- 92
2020-10-10 08:00:00 14.9 3 Este 7 Este 0 -- -- 92
2020-10-10 07:00:00 14.9 3 Este 9 Nordeste 0 -- -- 93
2020-10-10 06:00:00 15 3 Este 6 Nordeste 0 -- -- 94
2020-10-10 05:00:00 15.1 3 Este 8 Este 0 -- -- 94
2020-10-10 04:00:00 15.2 4 Sur 10 Sudoeste 0.8 -- -- 94
2020-10-10 03:00:00 15.4 3 Este 6 Este 0 -- -- 92
2020-10-10 02:00:00 15.7 3 Este 7 Este 0 -- -- 91
2020-10-10 01:00:00 16 2 Este 4 Este 0 -- -- 89
2020-10-10 00:00:00 16.3 3 Este 8 Este 0 -- -- 90
2020-10-09 23:00:00 16.9 4 Este 10 Sudeste 0.4 -- -- 87
2020-10-09 22:00:00 17.8 3 Este 18 Sudoeste 0 -- -- 84
2020-10-09 21:00:00 18.5 6 Oeste 14 Sudoeste 0 -- -- 85
2020-10-09 20:00:00 19.4 6 Sudoeste 14 Sudoeste 0 -- -- 78
2020-10-09 19:00:00 20.2 4 Este 6 Este 0 -- -- 68
2020-10-09 18:00:00 21.3 2 Sudoeste 8 Sudoeste 0 -- -- 59
2020-10-09 17:00:00 22.3 6 Sudoeste 13 Sudoeste 0 -- -- 56
2020-10-09 16:00:00 22.1 3 Nordeste 14 Sudoeste 0 -- -- 60
2020-10-09 15:00:00 21.9 8 Oeste 15 Sudoeste 0 -- -- 64
2020-10-09 14:00:00 21 8 Sudoeste 15 Sudoeste 0 -- -- 66
2020-10-09 13:00:00 20.1 6 Sudoeste 13 Oeste 0 -- -- 69
2020-10-09 12:00:00 18.7 3 Oeste 11 Sudoeste 0 -- -- 73
2020-10-09 11:00:00 16.2 5 Sudoeste 9 Nordeste 0 -- -- 82
2020-10-09 10:00:00 13.1 4 Nordeste 13 Este 0 -- -- 85
2020-10-09 09:00:00 11.9 8 Este 15 Este 0 -- -- 90
2020-10-09 08:00:00 11.3 7 Este 13 Este 0 -- -- 90
2020-10-09 07:00:00 11.6 6 Este 15 Este 0 -- -- 91
2020-10-09 06:00:00 12.2 8 Nordeste 15 Este 0 -- -- 90
2020-10-09 05:00:00 12.4 6 Nordeste 13 Nordeste 0 -- -- 92
2020-10-09 04:00:00 12.7 6 Este 11 Nordeste 0 -- -- 93
2020-10-09 03:00:00 12.3 5 Este 9 Este 0 -- -- 93
2020-10-09 02:00:00 12.8 5 Este 9 Este 0 -- -- 91
2020-10-09 01:00:00 13.3 4 Nordeste 9 Este 0 -- -- 91
2020-10-09 00:00:00 13.6 5 Nordeste 9 Este 0 -- -- 90
2020-10-08 23:00:00 14.3 6 Este 9 Este 0 -- -- 87
2020-10-08 22:00:00 14.9 5 Este 11 Este 0 -- -- 86
2020-10-08 21:00:00 15.8 5 Este 10 Este 0 -- -- 83
2020-10-08 20:00:00 16.5 6 Este 9 Este 0 -- -- 81
2020-10-08 19:00:00 18.1 3 Nordeste 6 Norte 0 -- -- 74
2020-10-08 18:00:00 19 2 Nordeste 6 Este 0 -- -- 72
2020-10-08 17:00:00 20 3 Este 9 Sudoeste 0 -- -- 67
2020-10-08 16:00:00 20.1 6 Sur 15 Sudoeste 0 -- -- 66
2020-10-08 15:00:00 19.6 6 Sudoeste 15 Sudoeste 0 -- -- 69
2020-10-08 14:00:00 17.9 3 Este 9 Nordeste 0 -- -- 72
2020-10-08 13:00:00 16.3 5 Nordeste 9 Este 0 -- -- 77
2020-10-08 12:00:00 15.3 2 Nordeste 5 Nordeste 0 -- -- 83
2020-10-08 11:00:00 14.3 0 Calma 9 Sudoeste 0 -- -- 92
2020-10-08 10:00:00 13.8 5 Sudoeste 8 Sudoeste 0 -- -- 95
2020-10-08 09:00:00 12.8 2 Noroeste 10 Sur 0 -- -- 96
2020-10-08 08:00:00 13.5 5 Este 8 Este 0 -- -- 94
2020-10-08 07:00:00 13.5 0 Calma 6 Sur 0 -- -- 94
2020-10-08 06:00:00 13.7 2 Noroeste 6 Sudoeste 0 -- -- 93
2020-10-08 05:00:00 13.9 4 Sudoeste 8 Sudoeste 0 -- -- 93
2020-10-08 04:00:00 14.2 4 Sur 9 Sur 0 -- -- 93
2020-10-08 03:00:00 14.5 4 Sudoeste 6 Sudeste 0 -- -- 92
2020-10-08 02:00:00 14.6 3 Sur 10 Sudoeste 0 -- -- 93
2020-10-08 01:00:00 14.9 8 Sudoeste 13 Sudoeste 0 -- -- 93
2020-10-08 00:00:00 15.4 4 Sudoeste 12 Sudoeste 0 -- -- 92
2020-10-07 23:00:00 15.7 6 Sudoeste 10 Sudoeste 0 -- -- 91
2020-10-07 22:00:00 16 6 Sudoeste 12 Sudoeste 0 -- -- 90
2020-10-07 21:00:00 16.7 4 Sudoeste 15 Sudoeste 0 -- -- 86
2020-10-07 20:00:00 17.1 11 Sudoeste 21 Sudoeste 0 -- -- 85
2020-10-07 19:00:00 19.5 5 Oeste 14 Sudoeste 0 -- -- 71
2020-10-07 18:00:00 20.7 5 Sur 17 Oeste 0 -- -- 65
2020-10-07 17:00:00 21.3 8 Sudoeste 17 Sudoeste 0 -- -- 61
2020-10-07 16:00:00 20.6 10 Sudoeste 17 Sudoeste 0 -- -- 63
2020-10-07 15:00:00 20.5 9 Sudoeste 16 Sudoeste 0 -- -- 65
2020-10-07 14:00:00 19.4 6 Sudoeste 15 Sudoeste 0 -- -- 65
2020-10-07 13:00:00 19.6 6 Sur 17 Sudoeste 0 -- -- 63
2020-10-07 12:00:00 18.5 6 Sudoeste 12 Sudoeste 0 -- -- 68
2020-10-07 11:00:00 16.9 5 Sudoeste 10 Nordeste 0 -- -- 77
2020-10-07 10:00:00 12.6 6 Este 11 Este 0 -- -- 87
2020-10-07 09:00:00 11.5 4 Este 14 Este 0 -- -- 88
2020-10-07 08:00:00 10.8 7 Este 12 Este 0 -- -- 89
2020-10-07 07:00:00 11 2 Norte 11 Este 0 -- -- 88
2020-10-07 06:00:00 11.2 6 Este 12 Este 0 -- -- 88
2020-10-07 05:00:00 11.1 5 Nordeste 10 Este 0 -- -- 89
2020-10-07 04:00:00 11.6 6 Este 12 Este 0 -- -- 86
2020-10-07 03:00:00 12.2 6 Este 10 Este 0 -- -- 85
2020-10-07 02:00:00 12.3 6 Nordeste 12 Este 0 -- -- 85
2020-10-07 01:00:00 12.7 7 Este 13 Este 0 -- -- 84
2020-10-07 00:00:00 13.5 6 Este 12 Este 0 -- -- 80
2020-10-06 23:00:00 14.1 6 Este 18 Este 0 -- -- 77
2020-10-06 22:00:00 14.8 11 Nordeste 17 Este 0 -- -- 75
2020-10-06 21:00:00 15.7 6 Este 14 Este 0 -- -- 72
2020-10-06 20:00:00 16.7 5 Este 11 Este 0 -- -- 69
2020-10-06 19:00:00 18.7 4 Nordeste 9 Norte 0 -- -- 61
2020-10-06 18:00:00 20.1 3 Nordeste 13 Este 0 -- -- 59
2020-10-06 17:00:00 20.5 6 Este 10 Sur 0 -- -- 55
2020-10-06 16:00:00 20.2 5 Este 15 Oeste 0 -- -- 51
2020-10-06 15:00:00 19.6 6 Oeste 14 Sudoeste 0 -- -- 54
2020-10-06 14:00:00 18.3 6 Sudoeste 12 Sudoeste 0 -- -- 56
2020-10-06 13:00:00 17.3 7 Sudoeste 12 Sudoeste 0 -- -- 62
2020-10-06 12:00:00 15.3 8 Sudoeste 15 Sudoeste 0 -- -- 65
2020-10-06 11:00:00 14.3 2 Este 7 Sudoeste 0 -- -- 67
2020-10-06 10:00:00 11.1 4 Sudeste 9 Este 0 -- -- 79
2020-10-06 09:00:00 7.1 5 Este 9 Este 0 -- -- 91
2020-10-06 08:00:00 7 5 Este 9 Nordeste 0 -- -- 90
2020-10-06 07:00:00 7.3 6 Este 10 Este 0 -- -- 89
2020-10-06 06:00:00 7.6 5 Este 10 Este 0 -- -- 88
2020-10-06 05:00:00 7.7 4 Este 12 Este 0 -- -- 87
2020-10-06 04:00:00 7.2 6 Este 15 Este 0 -- -- 88
2020-10-06 03:00:00 7.6 7 Este 12 Nordeste 0 -- -- 88
2020-10-06 02:00:00 8.6 6 Nordeste 17 Nordeste 0 -- -- 84
2020-10-06 01:00:00 8.8 6 Este 14 Este 0 -- -- 83
2020-10-06 00:00:00 9.5 5 Este 14 Este 0 -- -- 80
2020-10-05 23:00:00 9.9 5 Nordeste 9 Este 0 -- -- 79
2020-10-05 22:00:00 10.6 6 Este 15 Este 0 -- -- 76
2020-10-05 21:00:00 11.3 6 Nordeste 11 Este 0 -- -- 73
2020-10-05 20:00:00 12.3 4 Este 8 Este 0 -- -- 71
2020-10-05 19:00:00 13.9 5 Este 10 Nordeste 0 -- -- 67
2020-10-05 18:00:00 14.5 4 Este 10 Este 0 -- -- 63
2020-10-05 17:00:00 15.5 5 Sudeste 18 Sudoeste 0 -- -- 58
2020-10-05 16:00:00 16.8 7 Sur 17 Oeste 0 -- -- 53
2020-10-05 15:00:00 14.9 5 Sur 14 Sur 0 -- -- 56
2020-10-05 14:00:00 14.2 6 Sudoeste 15 Sudoeste 0 -- -- 61
2020-10-05 13:00:00 14.4 10 Sudoeste 18 Sudoeste 0 -- -- 64
2020-10-05 12:00:00 13.2 7 Sudoeste 14 Sudoeste 0 -- -- 68
2020-10-05 11:00:00 11.5 8 Sudoeste 12 Sudoeste 0 -- -- 73
2020-10-05 10:00:00 9.1 4 Sudeste 9 Este 0 -- -- 77
2020-10-05 09:00:00 4.9 7 Nordeste 11 Este 0 -- -- 92
2020-10-05 08:00:00 4.4 6 Este 10 Este 0 -- -- 91
2020-10-05 07:00:00 4.5 0 Calma 10 Este 0 -- -- 92
2020-10-05 06:00:00 5.1 6 Este 9 Este 0 -- -- 89
2020-10-05 05:00:00 5.7 3 Nordeste 13 Nordeste 0 -- -- 89
2020-10-05 04:00:00 5.7 7 Este 12 Nordeste 0 -- -- 88
2020-10-05 03:00:00 6.5 4 Noroeste 13 Este 0 -- -- 85
2020-10-05 02:00:00 7.4 5 Nordeste 13 Nordeste 0 -- -- 83
2020-10-05 01:00:00 7.4 3 Nordeste 12 Nordeste 0 -- -- 85
2020-10-05 00:00:00 8 5 Nordeste 12 Nordeste 0 -- -- 82
2020-10-04 23:00:00 8.7 6 Este 9 Nordeste 0 -- -- 80
2020-10-04 22:00:00 9.8 5 Este 11 Nordeste 0 -- -- 75
2020-10-04 21:00:00 11.3 6 Norte 24 Sudoeste 0 -- -- 66
2020-10-04 20:00:00 12.9 8 Sur 25 Oeste 0 -- -- 58
2020-10-04 19:00:00 14 10 Sudoeste 30 Sudoeste 0 -- -- 55
2020-10-04 18:00:00 15.3 15 Oeste 37 Sudoeste 0 -- -- 51
2020-10-04 17:00:00 15.8 19 Sudoeste 39 Sudoeste 0 -- -- 52
2020-10-04 16:00:00 14.6 21 Sudoeste 37 Oeste 0 -- -- 55
2020-10-04 15:00:00 13.9 23 Oeste 38 Oeste 0 -- -- 59
2020-10-04 14:00:00 14.3 22 Sudoeste 34 Oeste 0 -- -- 57
2020-10-04 13:00:00 13.6 25 Sudoeste 37 Sudoeste 0 -- -- 63
2020-10-04 12:00:00 13.3 12 Oeste 26 Sudoeste 0 -- -- 67
2020-10-04 11:00:00 12 5 Sudoeste 9 Sur 0 -- -- 71
2020-10-04 10:00:00 9.2 2 Este 7 Este 0 -- -- 80
2020-10-04 09:00:00 4.8 4 Este 9 Este 0 -- -- 92
2020-10-04 08:00:00 4.7 5 Este 12 Este 0 -- -- 91
2020-10-04 07:00:00 5.2 8 Este 12 Este 0 -- -- 90
2020-10-04 06:00:00 5.5 8 Este 11 Este 0 -- -- 91
2020-10-04 05:00:00 6 4 Este 11 Este 0 -- -- 89
2020-10-04 04:00:00 6.4 6 Este 13 Este 0 -- -- 89
2020-10-04 03:00:00 6.6 4 Nordeste 10 Nordeste 0 -- -- 88
2020-10-04 02:00:00 7 5 Este 8 Este 0 -- -- 87
2020-10-04 01:00:00 7.5 4 Este 8 Este 0 -- -- 85
2020-10-04 00:00:00 7.2 5 Este 22 Este 0 -- -- 86
2020-10-03 23:00:00 7.2 7 Este 11 Este 0 -- -- 87
2020-10-03 22:00:00 7.9 3 Nordeste 10 Este 0 -- -- 84
2020-10-03 21:00:00 8.7 5 Este 12 Nordeste 0 -- -- 79
2020-10-03 20:00:00 10.2 4 Nordeste 14 Sudoeste 0 -- -- 71
2020-10-03 19:00:00 12.4 3 Nordeste 14 Sudoeste 0 -- -- 63
2020-10-03 18:00:00 12.2 7 Sudoeste 34 Noroeste 0 -- -- 60
2020-10-03 17:00:00 12.4 20 Oeste 46 Oeste 0 -- -- 60
2020-10-03 16:00:00 14.1 28 Oeste 42 Oeste 0 -- -- 57
2020-10-03 15:00:00 13.6 4 Este 12 Este 0 -- -- 62
2020-10-03 14:00:00 12.9 3 Sudeste 10 Sudoeste 0 -- -- 61
2020-10-03 13:00:00 13 9 Sudoeste 16 Sudoeste 0 -- -- 68
2020-10-03 12:00:00 10.3 6 Este 12 Nordeste 0 -- -- 75
2020-10-03 11:00:00 9.5 4 Este 13 Este 0 -- -- 80
2020-10-03 10:00:00 6.9 8 Este 13 Sudeste 0 -- -- 93
2020-10-03 09:00:00 5.1 4 Este 8 Nordeste 0 -- -- 96
2020-10-03 08:00:00 5 0 Calma 12 Este 0 -- -- 96
2020-10-03 07:00:00 5.1 6 Este 13 Este 0 -- -- 96
2020-10-03 06:00:00 4.9 4 Este 7 Sur 0 -- -- 95
2020-10-03 05:00:00 5.3 0 Calma 10 Oeste 0 -- -- 95
2020-10-03 04:00:00 5.9 8 Sudoeste 12 Sudoeste 0 -- -- 96
2020-10-03 03:00:00 6.6 5 Sudoeste 9 Sudoeste 0 -- -- 96
2020-10-03 02:00:00 7 5 Sudoeste 9 Sur 0 -- -- 96
2020-10-03 01:00:00 7.4 0 Calma 9 Sur 0 -- -- 96
2020-10-03 00:00:00 7.2 2 Nordeste 7 Nordeste 0 -- -- 96
2020-10-02 23:00:00 7.5 0 Calma 9 Sudoeste 0.2 -- -- 94
2020-10-02 22:00:00 7.9 6 Oeste 12 Nordeste 0.2 -- -- 95
2020-10-02 21:00:00 8.3 7 Nordeste 13 Este 0.2 -- -- 94
2020-10-02 20:00:00 8.5 7 Nordeste 11 Este 0 -- -- 94
2020-10-02 19:00:00 8.6 4 Sudeste 21 Este 0 -- -- 93
2020-10-02 18:00:00 9.1 12 Sudoeste 33 Sudoeste 0 -- -- 89
2020-10-02 17:00:00 10.7 6 Este 50 Sudoeste 1 -- -- 89
2020-10-02 16:00:00 11.3 15 Sudoeste 31 Sudoeste 2.4 -- -- 91
2020-10-02 15:00:00 12.2 9 Sudoeste 31 Sudoeste 1.8 -- -- 92
2020-10-02 14:00:00 13.5 15 Sudoeste 26 Sudoeste 0.6 -- -- 93
2020-10-02 13:00:00 12.9 16 Sudoeste 27 Sudoeste 3.2 -- -- 96
2020-10-02 12:00:00 13 8 Sur 18 Sudoeste 0.6 -- -- 96
2020-10-02 11:00:00 13 10 Sudoeste 22 Sudoeste 1.2 -- -- 95
2020-10-02 10:00:00 13 15 Sudoeste 28 Sudoeste 1 -- -- 93
2020-10-02 09:00:00 13.4 20 Oeste 37 Oeste 0.6 -- -- 84
2020-10-02 08:00:00 13.1 4 Sudoeste 10 Oeste 0 -- -- 94
2020-10-02 07:00:00 13.3 3 Sudoeste 8 Sur 0 -- -- 93
2020-10-02 06:00:00 13.4 2 Este 5 Sudeste 0 -- -- 93
2020-10-02 05:00:00 13.5 2 Este 7 Sudeste 0 -- -- 92
2020-10-02 04:00:00 13.5 3 Nordeste 6 Norte 0 -- -- 92
2020-10-02 03:00:00 13.8 2 Sudeste 6 Nordeste 0 -- -- 90
2020-10-02 02:00:00 14.1 3 Este 13 Sur 0 -- -- 89
2020-10-02 01:00:00 14.4 8 Sudoeste 16 Sudoeste 0 -- -- 89
2020-10-02 00:00:00 15 9 Oeste 19 Sudoeste 0 -- -- 87
2020-10-01 23:00:00 15.8 4 Sudoeste 11 Sudoeste 0 -- -- 82
2020-10-01 22:00:00 15.8 4 Sur 13 Sudoeste 0 -- -- 76
2020-10-01 21:00:00 16.7 5 Sudoeste 21 Oeste 0 -- -- 57
2020-10-01 20:00:00 18.3 14 Oeste 28 Oeste 0 -- -- 53
2020-10-01 19:00:00 19.6 16 Oeste 27 Oeste 0 -- -- 56
2020-10-01 18:00:00 20.1 12 Sudoeste 34 Sudoeste 0 -- -- 61
2020-10-01 17:00:00 21.2 18 Sudoeste 36 Sudoeste 0 -- -- 56
2020-10-01 16:00:00 21.7 19 Sudoeste 33 Sudoeste 0 -- -- 56
2020-10-01 15:00:00 22.8 17 Oeste 28 Oeste 0 -- -- 48
2020-10-01 14:00:00 20.5 8 Sudoeste 15 Oeste 0 -- -- 64
2020-10-01 13:00:00 19.2 5 Sur 10 Sur 0 -- -- 65
2020-10-01 12:00:00 17.3 4 Oeste 9 Sudoeste 0 -- -- 74
2020-10-01 11:00:00 16 7 Sudoeste 10 Sudoeste 0 -- -- 75
2020-10-01 10:00:00 13.5 4 Este 11 Este 0 -- -- 75
2020-10-01 09:00:00 9.8 5 Este 10 Este 0 -- -- 89
2020-10-01 08:00:00 9.7 4 Este 9 Este 0 -- -- 87
2020-10-01 07:00:00 9.8 6 Este 11 Este 0 -- -- 87
2020-10-01 06:00:00 9.8 6 Este 12 Este 0 -- -- 87
2020-10-01 05:00:00 10.4 7 Este 12 Este 0 -- -- 84
2020-10-01 04:00:00 10.7 6 Este 12 Este 0 -- -- 83
2020-10-01 03:00:00 11.3 8 Este 14 Este 0 -- -- 82
2020-10-01 02:00:00 11 7 Este 14 Este 0 -- -- 86
2020-10-01 01:00:00 11.9 5 Nordeste 11 Este 0 -- -- 82
2020-10-01 00:00:00 12.3 6 Este 9 Este 0 -- -- 84